createdAt,value
2023-02-03T00:01:21.307Z,67.99
2023-02-03T00:03:54.240Z,67.86
2023-02-03T00:06:29.108Z,67.98
2023-02-03T00:09:02.201Z,67.74
2023-02-03T00:11:35.239Z,67.71
2023-02-03T00:14:08.658Z,67.58
2023-02-03T00:16:41.762Z,67.49
2023-02-03T00:19:16.517Z,67.55
2023-02-03T00:21:51.755Z,67.41
2023-02-03T00:24:27.084Z,67.35
2023-02-03T00:27:00.102Z,67.39
2023-02-03T00:29:33.722Z,67.26
2023-02-03T00:32:07.256Z,67.19
2023-02-03T00:34:40.509Z,67.37
2023-02-03T00:37:15.271Z,67.19
2023-02-03T00:39:48.220Z,67.05
2023-02-03T00:42:21.377Z,67.07
2023-02-03T00:44:54.404Z,67.09
2023-02-03T00:47:28.355Z,67.04
2023-02-03T00:50:01.318Z,66.94
2023-02-03T00:52:35.739Z,66.84
2023-02-03T00:55:10.469Z,66.74
2023-02-03T00:57:43.487Z,66.70
2023-02-03T01:00:18.062Z,66.79
2023-02-03T01:02:51.102Z,66.63
2023-02-03T01:05:24.987Z,66.52
2023-02-03T01:07:59.370Z,66.40
2023-02-03T01:10:32.548Z,66.35
2023-02-03T01:13:05.704Z,66.29
2023-02-03T01:15:38.724Z,66.39
2023-02-03T01:18:11.724Z,66.31
2023-02-03T01:20:44.681Z,66.32
2023-02-03T01:23:19.053Z,66.12
2023-02-03T01:25:51.988Z,66.08
2023-02-03T01:28:25.034Z,66.29
2023-02-03T01:30:59.664Z,66.14
2023-02-03T01:33:32.847Z,66.16
2023-02-03T01:36:05.907Z,66.14
2023-02-03T01:38:40.724Z,65.92
2023-02-03T01:41:15.914Z,65.94
2023-02-03T01:43:53.451Z,65.91
2023-02-03T01:46:31.792Z,65.92
2023-02-03T01:49:11.607Z,66.08
2023-02-03T01:51:46.457Z,66.07
2023-02-03T01:54:26.879Z,66.13
2023-02-03T01:57:03.590Z,66.31
2023-02-03T01:59:37.411Z,66.34
2023-02-03T02:02:12.666Z,66.40
2023-02-03T02:04:57.309Z,66.61
2023-02-03T02:07:30.935Z,66.55
2023-02-03T02:10:06.685Z,66.42
2023-02-03T02:12:39.912Z,66.42
2023-02-03T02:15:13.732Z,66.54
2023-02-03T02:18:08.461Z,66.64
2023-02-03T02:21:25.286Z,66.88
2023-02-03T02:24:23.012Z,67.05
2023-02-03T02:27:07.893Z,67.07
2023-02-03T02:30:26.980Z,67.17
2023-02-03T02:33:11.727Z,67.27
2023-02-03T02:35:53.115Z,67.41
2023-02-03T02:38:39.626Z,67.46
2023-02-03T02:41:20.506Z,67.72
2023-02-03T02:44:02.845Z,67.71
2023-02-03T02:46:40.461Z,67.64
2023-02-03T02:49:20.488Z,67.81
2023-02-03T02:51:54.915Z,67.72
2023-02-03T02:54:30.883Z,67.84
2023-02-03T02:57:07.857Z,67.97
2023-02-03T02:59:40.853Z,68.00
2023-02-03T03:02:14.020Z,67.90
2023-02-03T03:04:50.780Z,67.90
2023-02-03T03:07:27.372Z,68.00
2023-02-03T03:10:04.547Z,67.88
2023-02-03T03:12:41.059Z,68.11
2023-02-03T03:15:20.970Z,67.98
2023-02-03T03:18:01.487Z,67.93
2023-02-03T03:20:40.135Z,67.91
2023-02-03T03:23:19.617Z,68.05
2023-02-03T03:25:58.874Z,67.99
2023-02-03T03:28:39.015Z,68.08
2023-02-03T03:31:12.275Z,68.08
2023-02-03T03:33:45.743Z,68.08
2023-02-03T03:36:27.267Z,68.22
2023-02-03T03:39:05.220Z,68.40
2023-02-03T03:41:42.913Z,68.39
2023-02-03T03:44:19.926Z,68.54
2023-02-03T03:47:00.513Z,68.68
2023-02-03T03:49:35.368Z,68.54
2023-02-03T03:52:11.746Z,68.53
2023-02-03T03:54:47.579Z,68.81
2023-02-03T03:57:25.983Z,68.78
2023-02-03T04:00:01.756Z,68.79
2023-02-03T04:02:47.589Z,68.82
2023-02-03T04:05:22.294Z,68.69
2023-02-03T04:07:56.997Z,68.80
2023-02-03T04:10:33.544Z,68.87
2023-02-03T04:13:07.507Z,68.88
2023-02-03T04:15:40.270Z,68.52
2023-02-03T04:18:14.959Z,68.66
2023-02-03T04:20:47.892Z,68.61
2023-02-03T04:23:22.321Z,68.87
2023-02-03T04:25:55.319Z,68.64
2023-02-03T04:28:28.299Z,68.67
2023-02-03T04:31:02.042Z,68.86
2023-02-03T04:33:35.079Z,68.89
2023-02-03T04:36:09.265Z,68.81
2023-02-03T04:38:43.774Z,68.85
2023-02-03T04:41:16.857Z,68.75
2023-02-03T04:43:49.851Z,68.75
2023-02-03T04:46:22.815Z,68.85
2023-02-03T04:48:55.765Z,68.70
2023-02-03T04:51:28.807Z,68.80
2023-02-03T04:54:03.182Z,68.63
2023-02-03T04:56:36.178Z,68.60
2023-02-03T04:59:09.450Z,68.48
2023-02-03T05:01:42.443Z,68.24
2023-02-03T05:04:15.509Z,68.24
2023-02-03T05:06:48.765Z,68.29
2023-02-03T05:09:23.313Z,68.13
2023-02-03T05:11:56.356Z,68.20
2023-02-03T05:14:29.318Z,68.03
2023-02-03T05:17:04.572Z,68.07
2023-02-03T05:19:37.551Z,68.05
2023-02-03T05:22:10.528Z,67.98
2023-02-03T05:24:45.205Z,68.09
2023-02-03T05:27:18.176Z,68.10
2023-02-03T05:29:51.132Z,67.96
2023-02-03T05:32:24.107Z,68.09
2023-02-03T05:34:57.057Z,68.09
2023-02-03T05:37:30.080Z,67.92
2023-02-03T05:40:22.375Z,67.97
2023-02-03T05:42:55.357Z,67.86
2023-02-03T05:45:28.452Z,67.82
2023-02-03T05:48:02.557Z,67.97
2023-02-03T05:50:38.463Z,67.59
2023-02-03T05:53:14.869Z,67.67
2023-02-03T05:55:49.209Z,67.72
2023-02-03T05:58:22.299Z,67.65
2023-02-03T06:00:55.305Z,67.94
2023-02-03T06:03:28.551Z,67.76
2023-02-03T06:06:01.659Z,67.85
2023-02-03T06:08:34.627Z,67.83
2023-02-03T06:11:09.031Z,67.66
2023-02-03T06:13:42.018Z,67.68
2023-02-03T06:16:15.000Z,67.70
2023-02-03T06:18:48.052Z,67.58
2023-02-03T06:21:22.216Z,67.65
2023-02-03T06:23:56.632Z,67.64
2023-02-03T06:26:31.074Z,67.54
2023-02-03T06:29:04.075Z,67.49
2023-02-03T06:31:37.446Z,67.72
2023-02-03T06:34:13.331Z,67.64
2023-02-03T06:36:47.341Z,67.67
2023-02-03T06:39:20.187Z,67.37
2023-02-03T06:41:55.898Z,67.55
2023-02-03T06:44:28.960Z,67.50
2023-02-03T06:47:02.951Z,67.40
2023-02-03T06:49:35.801Z,67.32
2023-02-03T06:52:08.912Z,67.35
2023-02-03T06:54:41.920Z,67.47
2023-02-03T06:57:16.297Z,67.59
2023-02-03T06:59:49.390Z,67.83
2023-02-03T07:02:22.421Z,67.69
2023-02-03T07:04:55.510Z,67.56
2023-02-03T07:07:28.564Z,67.60
2023-02-03T07:10:01.664Z,67.41
2023-02-03T07:12:36.912Z,67.29
2023-02-03T07:15:11.134Z,67.46
2023-02-03T07:17:44.106Z,67.41
2023-02-03T07:20:17.502Z,67.26
2023-02-03T07:22:54.514Z,67.12
2023-02-03T07:25:27.588Z,67.07
2023-02-03T07:28:02.065Z,66.94
2023-02-03T07:30:35.064Z,66.83
2023-02-03T07:33:08.266Z,66.75
2023-02-03T07:35:41.227Z,66.57
2023-02-03T07:38:14.244Z,66.50
2023-02-03T07:40:47.299Z,66.37
2023-02-03T07:43:22.072Z,66.29
2023-02-03T07:45:55.061Z,65.83
2023-02-03T07:48:28.076Z,66.07
2023-02-03T07:51:01.064Z,65.79
2023-02-03T07:53:34.153Z,65.79
2023-02-03T07:56:07.764Z,65.89
2023-02-03T07:58:42.159Z,65.88
2023-02-03T08:01:17.585Z,65.65
2023-02-03T08:03:50.562Z,65.86
2023-02-03T08:06:23.876Z,65.52
2023-02-03T08:08:56.843Z,65.77
2023-02-03T08:11:29.838Z,65.82
2023-02-03T08:14:04.245Z,65.73
2023-02-03T08:16:37.668Z,65.64
2023-02-03T08:19:11.746Z,65.67
2023-02-03T08:21:44.507Z,65.56
2023-02-03T08:24:17.476Z,65.46
2023-02-03T08:26:50.449Z,65.33
2023-02-03T08:29:24.815Z,65.25
2023-02-03T08:32:00.543Z,65.28
2023-02-03T08:34:34.217Z,65.20
2023-02-03T08:37:07.629Z,65.12
2023-02-03T08:39:40.966Z,64.90
2023-02-03T08:42:14.322Z,65.03
2023-02-03T08:44:49.282Z,64.95
2023-02-03T08:47:22.370Z,64.98
2023-02-03T08:49:55.463Z,64.93
2023-02-03T08:52:28.765Z,64.84
2023-02-03T08:55:01.796Z,64.86
2023-02-03T08:57:35.094Z,64.89
2023-02-03T09:00:12.129Z,64.55
2023-02-03T09:02:47.901Z,64.62
2023-02-03T09:05:20.992Z,64.42
2023-02-03T09:07:54.077Z,64.45
2023-02-03T09:10:27.473Z,64.32
2023-02-03T09:13:02.724Z,64.16
2023-02-03T09:15:40.541Z,64.01
2023-02-03T09:18:13.711Z,63.71
2023-02-03T09:20:46.751Z,63.73
2023-02-03T09:23:20.010Z,63.54
2023-02-03T09:25:53.003Z,63.39
2023-02-03T09:28:26.083Z,63.48
2023-02-03T09:31:02.530Z,63.38
2023-02-03T09:33:36.321Z,63.39
2023-02-03T09:36:09.880Z,63.44
2023-02-03T09:38:43.200Z,63.38
2023-02-03T09:41:34.233Z,63.56
2023-02-03T09:44:13.808Z,63.33
2023-02-03T09:46:52.015Z,63.51
2023-02-03T09:49:29.708Z,63.52
2023-02-03T09:52:09.054Z,63.42
2023-02-03T09:54:46.253Z,63.28
2023-02-03T09:57:23.292Z,63.27
2023-02-03T09:59:59.574Z,63.35
2023-02-03T10:02:49.759Z,63.31
2023-02-03T10:05:31.703Z,63.12
2023-02-03T10:08:15.427Z,63.19
2023-02-03T10:11:09.691Z,63.14
2023-02-03T10:13:52.723Z,63.18
2023-02-03T10:16:46.597Z,63.01
2023-02-03T10:19:25.060Z,63.08
2023-02-03T10:22:00.307Z,63.00
2023-02-03T10:24:44.876Z,63.05
2023-02-03T10:27:21.664Z,63.21
2023-02-03T10:30:00.396Z,63.07
2023-02-03T10:32:33.821Z,63.09
2023-02-03T10:35:12.822Z,62.96
2023-02-03T10:37:50.884Z,62.92
2023-02-03T10:40:27.443Z,62.79
2023-02-03T10:43:17.961Z,62.81
2023-02-03T10:45:51.113Z,62.70
2023-02-03T10:48:25.281Z,62.87
2023-02-03T10:50:59.775Z,62.73
2023-02-03T10:53:35.270Z,62.57
2023-02-03T10:56:12.436Z,62.55
2023-02-03T10:58:50.738Z,62.62
2023-02-03T11:01:26.767Z,62.50
2023-02-03T11:04:03.821Z,62.38
2023-02-03T11:09:44.461Z,62.20
2023-02-03T11:12:18.407Z,62.07
2023-02-03T11:14:51.944Z,62.21
2023-02-03T11:17:26.233Z,62.04
2023-02-03T11:20:03.669Z,62.12
2023-02-03T11:22:38.398Z,62.08
2023-02-03T11:25:20.364Z,62.12
2023-02-03T11:27:54.549Z,62.08
2023-02-03T11:30:29.773Z,62.32
2023-02-03T11:33:03.055Z,62.32
2023-02-03T11:35:35.065Z,62.32
2023-02-03T11:38:29.653Z,62.51
2023-02-03T11:41:03.529Z,62.61
2023-02-03T11:43:35.443Z,62.96
2023-02-03T11:46:07.923Z,63.22
2023-02-03T11:48:51.480Z,63.38
2023-02-03T11:51:34.089Z,63.86
2023-02-03T11:54:24.122Z,64.21
2023-02-03T11:57:28.588Z,64.34
2023-02-03T12:00:20.055Z,64.61
2023-02-03T12:03:29.741Z,64.77
2023-02-03T12:06:25.716Z,65.15
2023-02-03T12:09:17.890Z,65.50
2023-02-03T12:12:08.725Z,65.70
2023-02-03T12:14:56.434Z,65.87
2023-02-03T12:17:46.866Z,66.21
2023-02-03T12:20:32.757Z,66.53
2023-02-03T12:23:17.907Z,66.66
2023-02-03T12:26:05.146Z,67.04
2023-02-03T12:28:50.361Z,67.38
2023-02-03T12:31:31.530Z,67.54
2023-02-03T12:34:14.530Z,67.83
2023-02-03T12:36:53.498Z,68.09
2023-02-03T12:39:32.735Z,68.04
2023-02-03T12:42:13.065Z,68.26
2023-02-03T12:44:53.864Z,68.46
2023-02-03T12:47:35.745Z,68.58
2023-02-03T12:50:18.392Z,68.66
2023-02-03T12:52:56.640Z,68.96
2023-02-03T12:55:35.586Z,69.07
2023-02-03T12:58:14.889Z,69.17
2023-02-03T13:00:52.437Z,69.26
2023-02-03T13:03:34.471Z,69.35
2023-02-03T13:06:13.236Z,69.53
2023-02-03T13:08:53.349Z,69.78
2023-02-03T13:11:35.260Z,69.94
2023-02-03T13:14:20.486Z,69.87
2023-02-03T13:16:58.604Z,70.02
2023-02-03T13:19:42.344Z,70.22
2023-02-03T13:22:17.635Z,70.17
2023-02-03T13:24:57.164Z,70.44
2023-02-03T13:27:47.264Z,70.53
2023-02-03T13:30:36.382Z,70.66
2023-02-03T13:33:52.201Z,70.52
2023-02-03T13:37:03.624Z,70.65
2023-02-03T13:39:47.272Z,70.73
2023-02-03T13:42:25.319Z,70.69
2023-02-03T13:45:01.516Z,70.87
2023-02-03T13:47:35.159Z,71.15
2023-02-03T13:50:20.745Z,71.16
2023-02-03T13:53:01.888Z,71.37
2023-02-03T13:55:39.676Z,71.38
2023-02-03T13:58:22.703Z,71.70
2023-02-03T14:01:08.422Z,71.64
2023-02-03T14:03:46.815Z,71.89
2023-02-03T14:07:02.746Z,71.63
2023-02-03T14:10:07.108Z,71.83
2023-02-03T14:12:40.959Z,71.88
2023-02-03T14:15:40.034Z,72.01
2023-02-03T14:18:32.278Z,71.96
2023-02-03T14:21:19.773Z,71.97
2023-02-03T14:24:00.163Z,72.21
2023-02-03T14:26:39.305Z,72.16
2023-02-03T14:29:26.585Z,72.23
2023-02-03T14:32:01.332Z,72.36
2023-02-03T14:34:36.747Z,72.55
2023-02-03T14:37:13.741Z,72.77
2023-02-03T14:40:20.654Z,72.57
2023-02-03T14:43:25.461Z,72.50
2023-02-03T14:46:30.054Z,72.51
2023-02-03T14:49:28.931Z,72.54
2023-02-03T14:52:18.114Z,72.63
2023-02-03T14:55:20.492Z,72.79
2023-02-03T14:57:57.615Z,72.79
2023-02-03T15:00:34.623Z,72.90
2023-02-03T15:03:31.044Z,72.83
2023-02-03T15:06:06.209Z,72.82
2023-02-03T15:08:45.421Z,72.87
2023-02-03T15:11:25.956Z,72.93
2023-02-03T15:14:18.981Z,73.06
2023-02-03T15:16:57.709Z,72.89
2023-02-03T15:19:36.909Z,73.03
2023-02-03T15:22:23.521Z,73.15
2023-02-03T15:24:58.191Z,73.08
2023-02-03T15:27:36.372Z,73.19
2023-02-03T15:30:22.660Z,73.20
2023-02-03T15:33:06.806Z,73.51
2023-02-03T15:35:44.464Z,73.44
2023-02-03T15:38:22.564Z,73.43
2023-02-03T15:40:58.840Z,73.38
2023-02-03T15:43:38.232Z,73.66
2023-02-03T15:46:19.375Z,73.53
2023-02-03T15:48:58.526Z,73.66
2023-02-03T15:51:34.404Z,73.57
2023-02-03T15:54:14.623Z,73.62
2023-02-03T15:56:56.779Z,73.67
2023-02-03T15:59:35.648Z,73.78
2023-02-03T16:02:18.632Z,73.64
2023-02-03T16:04:53.496Z,73.81
2023-02-03T16:07:28.619Z,73.88
2023-02-03T16:10:01.989Z,73.69
2023-02-03T16:12:35.468Z,73.71
2023-02-03T16:15:23.860Z,73.78
2023-02-03T16:17:58.462Z,73.82
2023-02-03T16:20:33.437Z,73.70
2023-02-03T16:23:18.429Z,73.74
2023-02-03T16:26:20.819Z,73.87
2023-02-03T16:29:27.197Z,73.92
2023-02-03T16:32:18.408Z,73.75
2023-02-03T16:35:08.558Z,73.91
2023-02-03T16:38:03.693Z,74.13
2023-02-03T16:40:53.893Z,73.88
2023-02-03T16:43:44.681Z,73.88
2023-02-03T16:46:35.186Z,73.84
2023-02-03T16:49:25.439Z,73.92
2023-02-03T16:52:01.659Z,73.90
2023-02-03T16:54:37.465Z,73.97
2023-02-03T16:57:10.578Z,74.03
2023-02-03T16:59:43.530Z,73.97
2023-02-03T17:02:16.536Z,74.03
2023-02-03T17:04:49.558Z,74.29
2023-02-03T17:07:22.823Z,73.93
2023-02-03T17:09:58.236Z,74.14
2023-02-03T17:12:33.565Z,74.11
2023-02-03T17:15:07.856Z,74.07
2023-02-03T17:17:40.846Z,74.00
2023-02-03T17:20:14.000Z,74.14
2023-02-03T17:22:46.966Z,73.98
2023-02-03T17:25:21.854Z,74.11
2023-02-03T17:27:57.718Z,74.07
2023-02-03T17:30:34.011Z,74.01
2023-02-03T17:33:12.191Z,73.97
2023-02-03T17:35:46.345Z,74.06
2023-02-03T17:38:21.259Z,73.44
2023-02-03T17:55:08.969Z,73.80
2023-02-03T17:57:43.340Z,73.71
2023-02-03T18:00:17.012Z,73.85
2023-02-03T18:02:51.849Z,73.96
2023-02-03T18:05:25.121Z,74.03
2023-02-03T18:08:01.108Z,74.01
2023-02-03T18:10:39.289Z,74.08
2023-02-03T18:13:13.721Z,74.20
2023-02-03T18:15:46.695Z,74.17
2023-02-03T18:18:21.349Z,74.23
2023-02-03T18:20:54.675Z,74.12
2023-02-03T18:23:27.680Z,74.22
2023-02-03T18:26:01.381Z,74.07
2023-02-03T18:28:36.177Z,74.32
2023-02-03T18:31:12.284Z,74.39
2023-02-03T18:33:46.578Z,74.41
2023-02-03T18:36:20.050Z,74.35
2023-02-03T18:38:53.080Z,74.54
2023-02-03T18:41:27.227Z,74.54
2023-02-03T18:44:01.656Z,74.57
2023-02-03T18:46:34.810Z,74.36
2023-02-03T18:49:09.804Z,74.29
2023-02-03T18:51:42.776Z,74.49
2023-02-03T18:54:15.826Z,74.44
2023-02-03T18:56:48.829Z,74.48
2023-02-03T18:59:23.277Z,74.39
2023-02-03T19:01:57.480Z,74.31
2023-02-03T19:04:30.669Z,74.35
2023-02-03T19:07:03.624Z,74.47
2023-02-03T19:09:36.886Z,74.29
2023-02-03T19:12:10.090Z,74.36
2023-02-03T19:14:44.508Z,74.31
2023-02-03T19:17:17.787Z,74.39
2023-02-03T19:19:50.940Z,74.36
2023-02-03T19:22:23.945Z,74.38
2023-02-03T19:24:58.284Z,74.24
2023-02-03T19:27:31.291Z,74.26
2023-02-03T19:30:06.263Z,74.44
2023-02-03T19:32:39.241Z,74.32
2023-02-03T19:35:13.687Z,74.32
2023-02-03T19:37:46.716Z,74.38
2023-02-03T19:40:19.990Z,74.23
2023-02-03T19:42:53.071Z,74.45
2023-02-03T19:45:27.489Z,74.46
2023-02-03T19:48:00.441Z,74.46
2023-02-03T19:50:33.428Z,74.47
2023-02-03T19:53:08.374Z,74.22
2023-02-03T19:55:43.413Z,74.47
2023-02-03T19:58:16.460Z,74.44
2023-02-03T20:00:50.991Z,74.24
2023-02-03T20:03:24.448Z,74.43
2023-02-03T20:05:57.711Z,74.27
2023-02-03T20:08:30.655Z,74.25
2023-02-03T20:11:03.717Z,74.31
2023-02-03T20:13:36.770Z,74.22
2023-02-03T20:16:11.264Z,74.38
2023-02-03T20:18:44.321Z,74.18
2023-02-03T20:21:17.298Z,74.04
2023-02-03T20:23:50.232Z,74.14
2023-02-03T20:26:23.455Z,74.20
2023-02-03T20:28:56.428Z,74.27
2023-02-03T20:31:30.999Z,74.22
2023-02-03T20:34:05.121Z,74.21
2023-02-03T20:36:38.379Z,73.77
2023-02-03T20:39:17.712Z,74.02
2023-02-03T20:41:50.774Z,74.00
2023-02-03T20:44:23.964Z,73.98
2023-02-03T20:46:58.732Z,74.18
2023-02-03T20:49:31.807Z,74.00
2023-02-03T20:52:11.243Z,74.07
2023-02-03T20:54:44.926Z,73.99
2023-02-03T20:57:20.358Z,74.19
2023-02-03T20:59:53.546Z,74.10
2023-02-03T21:02:48.731Z,74.08
2023-02-03T21:05:26.734Z,74.11
2023-02-03T21:07:59.822Z,74.16
2023-02-03T21:10:32.916Z,74.17
2023-02-03T21:13:20.648Z,74.22
2023-02-03T21:15:55.218Z,74.16
2023-02-03T21:18:35.714Z,74.18
2023-02-03T21:21:14.922Z,74.19
2023-02-03T21:23:48.204Z,74.07
2023-02-03T21:26:23.243Z,74.19
2023-02-03T21:28:58.236Z,74.11
2023-02-03T21:31:33.535Z,74.17
2023-02-03T21:34:25.727Z,74.06
2023-02-03T21:37:00.199Z,74.06
2023-02-03T21:39:36.871Z,74.04
2023-02-03T21:42:41.537Z,74.14
2023-02-03T21:45:38.969Z,73.90
2023-02-03T21:48:30.022Z,73.95
2023-02-03T21:51:05.811Z,73.88
2023-02-03T21:53:39.744Z,74.12
2023-02-03T21:56:18.068Z,74.08
2023-02-03T21:58:52.640Z,74.06
2023-02-03T22:01:26.855Z,74.22
2023-02-03T22:04:01.544Z,74.11
2023-02-03T22:06:44.549Z,74.10
2023-02-03T22:09:19.498Z,73.96
2023-02-03T22:11:52.891Z,74.02
2023-02-03T22:14:25.881Z,74.01
2023-02-03T22:16:58.936Z,74.00
2023-02-03T22:19:32.299Z,74.00
2023-02-03T22:22:06.673Z,74.19
2023-02-03T22:24:39.680Z,74.02
2023-02-03T22:27:12.725Z,74.17
2023-02-03T22:29:45.897Z,73.96
2023-02-03T22:32:18.904Z,74.01
2023-02-03T22:34:51.847Z,74.02
2023-02-03T22:37:26.204Z,74.14
2023-02-03T22:39:59.168Z,74.27
2023-02-03T22:42:32.142Z,74.08
2023-02-03T22:45:06.441Z,74.20
2023-02-03T22:47:39.540Z,74.09
2023-02-03T22:50:14.558Z,74.04
2023-02-03T22:52:50.805Z,74.07
2023-02-03T22:55:23.969Z,74.05
2023-02-03T22:57:56.943Z,74.15
2023-02-03T23:00:30.228Z,74.20
2023-02-03T23:03:04.173Z,74.08
2023-02-03T23:05:36.951Z,73.91
2023-02-03T23:08:12.578Z,73.84
2023-02-03T23:10:48.264Z,73.88
2023-02-03T23:13:21.227Z,74.11
2023-02-03T23:15:54.269Z,74.05
2023-02-03T23:18:27.403Z,74.09
2023-02-03T23:21:00.418Z,74.03
2023-02-03T23:23:33.437Z,74.00
2023-02-03T23:26:07.822Z,74.07
2023-02-03T23:28:40.795Z,74.08
2023-02-03T23:31:15.281Z,74.03
2023-02-03T23:34:02.355Z,73.93
2023-02-03T23:36:35.904Z,73.94
2023-02-03T23:39:08.869Z,73.95
2023-02-03T23:41:43.233Z,74.06
2023-02-03T23:44:16.223Z,74.14
2023-02-03T23:46:49.207Z,73.88
2023-02-03T23:49:22.196Z,74.04
2023-02-03T23:51:55.238Z,74.04
2023-02-03T23:54:28.218Z,73.92
2023-02-03T23:57:02.561Z,74.12
2023-02-03T23:59:35.543Z,73.95
